sensor_id;sensor_type;location;lat;lon;timestamp;temperature;humidity
26099;DHT22;13860;52.370;6.764;2022-07-04T00:02:44;18.50;63.70
26099;DHT22;13860;52.370;6.764;2022-07-04T00:05:50;18.40;63.80
26099;DHT22;13860;52.370;6.764;2022-07-04T00:08:57;18.40;63.80
26099;DHT22;13860;52.370;6.764;2022-07-04T00:12:03;18.30;63.90
26099;DHT22;13860;52.370;6.764;2022-07-04T00:15:09;18.30;63.90
26099;DHT22;13860;52.370;6.764;2022-07-04T00:18:17;18.30;64.00
26099;DHT22;13860;52.370;6.764;2022-07-04T00:21:24;18.20;64.10
26099;DHT22;13860;52.370;6.764;2022-07-04T00:24:32;18.10;64.10
26099;DHT22;13860;52.370;6.764;2022-07-04T00:27:37;18.10;64.20
26099;DHT22;13860;52.370;6.764;2022-07-04T00:30:45;18.10;64.20
26099;DHT22;13860;52.370;6.764;2022-07-04T00:33:53;18.00;64.40
26099;DHT22;13860;52.370;6.764;2022-07-04T00:37:00;18.00;64.40
26099;DHT22;13860;52.370;6.764;2022-07-04T00:40:12;18.00;64.40
26099;DHT22;13860;52.370;6.764;2022-07-04T00:43:21;17.90;64.50
26099;DHT22;13860;52.370;6.764;2022-07-04T00:46:27;17.90;64.60
26099;DHT22;13860;52.370;6.764;2022-07-04T00:49:33;17.80;64.60
26099;DHT22;13860;52.370;6.764;2022-07-04T00:52:39;17.80;64.70
26099;DHT22;13860;52.370;6.764;2022-07-04T00:55:46;17.70;64.80
26099;DHT22;13860;52.370;6.764;2022-07-04T00:58:52;17.70;64.90
26099;DHT22;13860;52.370;6.764;2022-07-04T01:01:57;17.60;64.90
26099;DHT22;13860;52.370;6.764;2022-07-04T01:05:03;17.60;65.00
26099;DHT22;13860;52.370;6.764;2022-07-04T01:08:10;17.50;65.10
26099;DHT22;13860;52.370;6.764;2022-07-04T01:11:18;17.50;65.20
26099;DHT22;13860;52.370;6.764;2022-07-04T01:14:23;17.40;65.30
26099;DHT22;13860;52.370;6.764;2022-07-04T01:17:28;17.40;65.30
26099;DHT22;13860;52.370;6.764;2022-07-04T01:20:37;17.40;65.30
26099;DHT22;13860;52.370;6.764;2022-07-04T01:23:42;17.30;65.50
26099;DHT22;13860;52.370;6.764;2022-07-04T01:26:48;17.30;65.40
26099;DHT22;13860;52.370;6.764;2022-07-04T01:29:53;17.20;65.40
26099;DHT22;13860;52.370;6.764;2022-07-04T01:32:58;17.20;65.50
26099;DHT22;13860;52.370;6.764;2022-07-04T01:36:05;17.20;65.60
26099;DHT22;13860;52.370;6.764;2022-07-04T01:39:10;17.10;65.60
26099;DHT22;13860;52.370;6.764;2022-07-04T01:42:15;17.10;65.70
26099;DHT22;13860;52.370;6.764;2022-07-04T01:45:22;17.00;65.60
26099;DHT22;13860;52.370;6.764;2022-07-04T01:48:27;17.00;65.70
26099;DHT22;13860;52.370;6.764;2022-07-04T01:51:35;17.00;65.70
26099;DHT22;13860;52.370;6.764;2022-07-04T01:54:40;16.90;65.90
26099;DHT22;13860;52.370;6.764;2022-07-04T01:57:46;16.90;65.90
26099;DHT22;13860;52.370;6.764;2022-07-04T02:00:51;16.80;65.90
26099;DHT22;13860;52.370;6.764;2022-07-04T02:04:08;16.80;65.90
26099;DHT22;13860;52.370;6.764;2022-07-04T02:07:16;16.70;66.00
26099;DHT22;13860;52.370;6.764;2022-07-04T02:10:22;16.70;66.10
26099;DHT22;13860;52.370;6.764;2022-07-04T02:13:27;16.60;66.00
26099;DHT22;13860;52.370;6.764;2022-07-04T02:16:32;16.60;66.10
26099;DHT22;13860;52.370;6.764;2022-07-04T02:19:37;16.60;66.20
26099;DHT22;13860;52.370;6.764;2022-07-04T02:22:44;16.50;66.20
26099;DHT22;13860;52.370;6.764;2022-07-04T02:25:49;16.50;66.30
26099;DHT22;13860;52.370;6.764;2022-07-04T02:28:54;16.50;66.30
26099;DHT22;13860;52.370;6.764;2022-07-04T02:32:00;16.40;66.30
26099;DHT22;13860;52.370;6.764;2022-07-04T02:35:06;16.40;66.40
26099;DHT22;13860;52.370;6.764;2022-07-04T02:38:14;16.40;66.50
26099;DHT22;13860;52.370;6.764;2022-07-04T02:41:19;16.30;66.50
26099;DHT22;13860;52.370;6.764;2022-07-04T02:44:24;16.30;66.50
26099;DHT22;13860;52.370;6.764;2022-07-04T02:47:30;16.30;66.60
26099;DHT22;13860;52.370;6.764;2022-07-04T02:50:35;16.20;66.60
26099;DHT22;13860;52.370;6.764;2022-07-04T02:53:42;16.20;66.70
26099;DHT22;13860;52.370;6.764;2022-07-04T02:56:47;16.10;66.70
26099;DHT22;13860;52.370;6.764;2022-07-04T02:59:52;16.10;66.70
26099;DHT22;13860;52.370;6.764;2022-07-04T03:02:58;16.10;66.80
26099;DHT22;13860;52.370;6.764;2022-07-04T03:06:03;16.00;66.80
26099;DHT22;13860;52.370;6.764;2022-07-04T03:09:10;16.00;66.90
26099;DHT22;13860;52.370;6.764;2022-07-04T03:12:15;16.00;67.00
26099;DHT22;13860;52.370;6.764;2022-07-04T03:15:20;15.90;66.90
26099;DHT22;13860;52.370;6.764;2022-07-04T03:18:25;15.90;67.00
26099;DHT22;13860;52.370;6.764;2022-07-04T03:21:33;15.80;67.00
26099;DHT22;13860;52.370;6.764;2022-07-04T03:24:41;15.80;67.10
26099;DHT22;13860;52.370;6.764;2022-07-04T03:27:46;15.80;67.20
26099;DHT22;13860;52.370;6.764;2022-07-04T03:30:51;15.80;67.20
26099;DHT22;13860;52.370;6.764;2022-07-04T03:33:56;15.70;67.20
26099;DHT22;13860;52.370;6.764;2022-07-04T03:37:01;15.70;67.30
26099;DHT22;13860;52.370;6.764;2022-07-04T03:40:10;15.70;68.10
26099;DHT22;13860;52.370;6.764;2022-07-04T03:43:15;15.60;67.50
26099;DHT22;13860;52.370;6.764;2022-07-04T03:46:20;15.60;67.40
26099;DHT22;13860;52.370;6.764;2022-07-04T03:49:25;15.60;67.50
26099;DHT22;13860;52.370;6.764;2022-07-04T03:52:31;15.60;67.60
26099;DHT22;13860;52.370;6.764;2022-07-04T03:55:39;15.50;67.60
26099;DHT22;13860;52.370;6.764;2022-07-04T03:58:44;15.50;67.70
26099;DHT22;13860;52.370;6.764;2022-07-04T04:01:51;15.50;67.70
26099;DHT22;13860;52.370;6.764;2022-07-04T04:04:56;15.50;67.80
26099;DHT22;13860;52.370;6.764;2022-07-04T04:08:13;15.40;67.90
26099;DHT22;13860;52.370;6.764;2022-07-04T04:11:21;15.40;67.90
26099;DHT22;13860;52.370;6.764;2022-07-04T04:14:26;15.40;68.10
26099;DHT22;13860;52.370;6.764;2022-07-04T04:17:31;15.40;68.20
26099;DHT22;13860;52.370;6.764;2022-07-04T04:20:36;15.40;68.30
26099;DHT22;13860;52.370;6.764;2022-07-04T04:23:41;15.40;68.40
26099;DHT22;13860;52.370;6.764;2022-07-04T04:26:49;15.40;68.40
26099;DHT22;13860;52.370;6.764;2022-07-04T04:29:54;15.40;68.60
26099;DHT22;13860;52.370;6.764;2022-07-04T04:32:59;15.40;68.60
26099;DHT22;13860;52.370;6.764;2022-07-04T04:36:05;15.40;68.70
26099;DHT22;13860;52.370;6.764;2022-07-04T04:39:10;15.40;68.80
26099;DHT22;13860;52.370;6.764;2022-07-04T04:42:18;15.40;68.90
26099;DHT22;13860;52.370;6.764;2022-07-04T04:45:23;15.40;69.00
26099;DHT22;13860;52.370;6.764;2022-07-04T04:48:28;15.40;69.00
26099;DHT22;13860;52.370;6.764;2022-07-04T04:51:33;15.50;69.10
26099;DHT22;13860;52.370;6.764;2022-07-04T04:54:38;15.50;69.20
26099;DHT22;13860;52.370;6.764;2022-07-04T04:57:46;15.50;69.30
26099;DHT22;13860;52.370;6.764;2022-07-04T05:00:51;15.50;69.40
26099;DHT22;13860;52.370;6.764;2022-07-04T05:04:16;15.50;69.40
26099;DHT22;13860;52.370;6.764;2022-07-04T05:07:22;15.50;69.40
26099;DHT22;13860;52.370;6.764;2022-07-04T05:10:27;15.50;69.50
26099;DHT22;13860;52.370;6.764;2022-07-04T05:13:35;15.60;69.60
26099;DHT22;13860;52.370;6.764;2022-07-04T05:16:40;15.60;69.80
26099;DHT22;13860;52.370;6.764;2022-07-04T05:19:45;15.60;69.80
26099;DHT22;13860;52.370;6.764;2022-07-04T05:22:50;15.60;69.80
26099;DHT22;13860;52.370;6.764;2022-07-04T05:25:55;15.70;69.90
26099;DHT22;13860;52.370;6.764;2022-07-04T05:29:02;15.70;70.10
26099;DHT22;13860;52.370;6.764;2022-07-04T05:32:08;15.70;70.20
26099;DHT22;13860;52.370;6.764;2022-07-04T05:35:13;15.80;70.20
26099;DHT22;13860;52.370;6.764;2022-07-04T05:38:18;15.80;70.40
26099;DHT22;13860;52.370;6.764;2022-07-04T05:41:23;15.90;70.40
26099;DHT22;13860;52.370;6.764;2022-07-04T05:44:31;16.00;70.60
26099;DHT22;13860;52.370;6.764;2022-07-04T05:47:36;16.10;70.80
26099;DHT22;13860;52.370;6.764;2022-07-04T05:50:41;16.20;70.80
26099;DHT22;13860;52.370;6.764;2022-07-04T05:53:46;16.30;70.90
26099;DHT22;13860;52.370;6.764;2022-07-04T05:56:51;16.50;71.00
26099;DHT22;13860;52.370;6.764;2022-07-04T05:59:59;16.60;71.00
26099;DHT22;13860;52.370;6.764;2022-07-04T06:03:06;16.80;71.10
26099;DHT22;13860;52.370;6.764;2022-07-04T06:06:11;17.00;71.00
26099;DHT22;13860;52.370;6.764;2022-07-04T06:09:18;17.20;70.90
26099;DHT22;13860;52.370;6.764;2022-07-04T06:12:23;17.40;70.70
26099;DHT22;13860;52.370;6.764;2022-07-04T06:15:31;17.60;70.60
26099;DHT22;13860;52.370;6.764;2022-07-04T06:18:36;17.80;70.60
26099;DHT22;13860;52.370;6.764;2022-07-04T06:21:41;18.00;70.40
26099;DHT22;13860;52.370;6.764;2022-07-04T06:24:46;18.30;70.30
26099;DHT22;13860;52.370;6.764;2022-07-04T06:27:51;18.40;70.20
26099;DHT22;13860;52.370;6.764;2022-07-04T06:30:59;18.60;70.00
26099;DHT22;13860;52.370;6.764;2022-07-04T06:34:04;18.90;69.80
26099;DHT22;13860;52.370;6.764;2022-07-04T06:37:21;19.00;69.50
26099;DHT22;13860;52.370;6.764;2022-07-04T06:40:33;19.30;69.40
26099;DHT22;13860;52.370;6.764;2022-07-04T06:43:45;19.50;69.20
26099;DHT22;13860;52.370;6.764;2022-07-04T06:46:54;19.70;69.00
26099;DHT22;13860;52.370;6.764;2022-07-04T06:50:03;19.90;68.80
26099;DHT22;13860;52.370;6.764;2022-07-04T06:53:29;20.10;68.50
26099;DHT22;13860;52.370;6.764;2022-07-04T06:56:34;20.20;68.30
26099;DHT22;13860;52.370;6.764;2022-07-04T06:59:39;20.40;68.00
26099;DHT22;13860;52.370;6.764;2022-07-04T07:02:48;20.60;67.80
26099;DHT22;13860;52.370;6.764;2022-07-04T07:05:53;20.70;67.50
26099;DHT22;13860;52.370;6.764;2022-07-04T07:09:01;20.90;67.40
26099;DHT22;13860;52.370;6.764;2022-07-04T07:12:07;21.00;67.20
26099;DHT22;13860;52.370;6.764;2022-07-04T07:15:12;21.20;66.90
26099;DHT22;13860;52.370;6.764;2022-07-04T07:18:21;21.30;66.80
26099;DHT22;13860;52.370;6.764;2022-07-04T07:21:26;21.50;66.70
26099;DHT22;13860;52.370;6.764;2022-07-04T07:24:31;21.60;66.50
26099;DHT22;13860;52.370;6.764;2022-07-04T07:27:36;21.70;66.30
26099;DHT22;13860;52.370;6.764;2022-07-04T07:30:41;21.90;66.20
26099;DHT22;13860;52.370;6.764;2022-07-04T07:33:49;22.00;66.00
26099;DHT22;13860;52.370;6.764;2022-07-04T07:36:54;22.10;65.80
26099;DHT22;13860;52.370;6.764;2022-07-04T07:40:00;22.20;65.70
26099;DHT22;13860;52.370;6.764;2022-07-04T07:43:05;22.30;65.40
26099;DHT22;13860;52.370;6.764;2022-07-04T07:46:10;22.40;65.30
26099;DHT22;13860;52.370;6.764;2022-07-04T07:49:18;22.50;65.00
26099;DHT22;13860;52.370;6.764;2022-07-04T07:52:23;22.60;64.80
26099;DHT22;13860;52.370;6.764;2022-07-04T07:55:29;22.60;64.80
26099;DHT22;13860;52.370;6.764;2022-07-04T07:58:34;22.70;64.70
26099;DHT22;13860;52.370;6.764;2022-07-04T08:01:39;22.70;64.60
26099;DHT22;13860;52.370;6.764;2022-07-04T08:04:47;22.80;64.50
26099;DHT22;13860;52.370;6.764;2022-07-04T08:07:49;22.80;64.50
26099;DHT22;13860;52.370;6.764;2022-07-04T08:10:54;22.90;64.40
26099;DHT22;13860;52.370;6.764;2022-07-04T08:13:59;22.90;64.20
26099;DHT22;13860;52.370;6.764;2022-07-04T08:17:04;23.00;64.00
26099;DHT22;13860;52.370;6.764;2022-07-04T08:20:12;23.00;63.80
26099;DHT22;13860;52.370;6.764;2022-07-04T08:23:18;23.00;63.90
26099;DHT22;13860;52.370;6.764;2022-07-04T08:26:23;23.10;63.70
26099;DHT22;13860;52.370;6.764;2022-07-04T08:29:29;23.10;63.50
26099;DHT22;13860;52.370;6.764;2022-07-04T08:32:34;23.10;63.30
26099;DHT22;13860;52.370;6.764;2022-07-04T08:35:42;23.10;63.30
26099;DHT22;13860;52.370;6.764;2022-07-04T08:38:47;23.10;63.40
26099;DHT22;13860;52.370;6.764;2022-07-04T08:41:52;23.10;63.30
26099;DHT22;13860;52.370;6.764;2022-07-04T08:45:00;23.10;63.10
26099;DHT22;13860;52.370;6.764;2022-07-04T08:48:07;23.10;63.00
26099;DHT22;13860;52.370;6.764;2022-07-04T08:51:16;23.10;63.10
26099;DHT22;13860;52.370;6.764;2022-07-04T08:54:24;23.10;62.90
26099;DHT22;13860;52.370;6.764;2022-07-04T08:57:42;23.10;63.00
26099;DHT22;13860;52.370;6.764;2022-07-04T09:01:01;23.20;63.00
26099;DHT22;13860;52.370;6.764;2022-07-04T09:04:07;23.20;62.80
26099;DHT22;13860;52.370;6.764;2022-07-04T09:07:15;23.30;62.90
26099;DHT22;13860;52.370;6.764;2022-07-04T09:10:21;23.30;62.80
26099;DHT22;13860;52.370;6.764;2022-07-04T09:13:27;23.40;62.80
26099;DHT22;13860;52.370;6.764;2022-07-04T09:16:31;23.50;62.70
26099;DHT22;13860;52.370;6.764;2022-07-04T09:19:37;23.50;62.60
26099;DHT22;13860;52.370;6.764;2022-07-04T09:22:45;23.60;62.50
26099;DHT22;13860;52.370;6.764;2022-07-04T09:26:08;23.60;62.40
26099;DHT22;13860;52.370;6.764;2022-07-04T09:29:14;23.70;62.20
26099;DHT22;13860;52.370;6.764;2022-07-04T09:32:32;23.70;62.10
26099;DHT22;13860;52.370;6.764;2022-07-04T09:35:37;23.70;61.90
26099;DHT22;13860;52.370;6.764;2022-07-04T09:39:04;23.70;61.90
26099;DHT22;13860;52.370;6.764;2022-07-04T09:42:11;23.70;61.70
26099;DHT22;13860;52.370;6.764;2022-07-04T09:45:16;23.70;61.70
26099;DHT22;13860;52.370;6.764;2022-07-04T09:48:23;23.70;61.70
26099;DHT22;13860;52.370;6.764;2022-07-04T09:51:37;23.60;61.60
26099;DHT22;13860;52.370;6.764;2022-07-04T09:54:47;23.60;61.50
26099;DHT22;13860;52.370;6.764;2022-07-04T09:57:54;23.50;61.50
26099;DHT22;13860;52.370;6.764;2022-07-04T10:00:59;23.50;61.60
26099;DHT22;13860;52.370;6.764;2022-07-04T10:04:05;23.40;61.70
26099;DHT22;13860;52.370;6.764;2022-07-04T10:07:11;23.30;61.90
26099;DHT22;13860;52.370;6.764;2022-07-04T10:10:30;23.30;61.80
26099;DHT22;13860;52.370;6.764;2022-07-04T10:13:36;23.30;61.70
26099;DHT22;13860;52.370;6.764;2022-07-04T10:16:42;23.30;61.60
26099;DHT22;13860;52.370;6.764;2022-07-04T10:19:48;23.40;61.60
26099;DHT22;13860;52.370;6.764;2022-07-04T10:22:55;23.40;61.50
26099;DHT22;13860;52.370;6.764;2022-07-04T10:26:03;23.50;61.40
26099;DHT22;13860;52.370;6.764;2022-07-04T10:29:11;23.50;61.40
26099;DHT22;13860;52.370;6.764;2022-07-04T10:32:16;23.60;61.30
26099;DHT22;13860;52.370;6.764;2022-07-04T10:35:46;23.60;61.20
26099;DHT22;13860;52.370;6.764;2022-07-04T10:38:53;23.70;61.00
26099;DHT22;13860;52.370;6.764;2022-07-04T10:42:01;23.70;61.00
26099;DHT22;13860;52.370;6.764;2022-07-04T10:45:08;23.80;60.80
26099;DHT22;13860;52.370;6.764;2022-07-04T10:48:19;23.80;60.70
26099;DHT22;13860;52.370;6.764;2022-07-04T10:51:39;23.80;60.50
26099;DHT22;13860;52.370;6.764;2022-07-04T10:54:45;23.70;60.40
26099;DHT22;13860;52.370;6.764;2022-07-04T10:57:53;23.70;60.50
26099;DHT22;13860;52.370;6.764;2022-07-04T11:01:11;23.70;60.40
26099;DHT22;13860;52.370;6.764;2022-07-04T11:04:47;23.60;60.20
26099;DHT22;13860;52.370;6.764;2022-07-04T11:08:00;23.50;60.00
26099;DHT22;13860;52.370;6.764;2022-07-04T11:14:50;23.40;60.00
26099;DHT22;13860;52.370;6.764;2022-07-04T11:17:56;23.30;60.10
26099;DHT22;13860;52.370;6.764;2022-07-04T11:21:01;23.30;60.20
26099;DHT22;13860;52.370;6.764;2022-07-04T11:24:07;23.30;60.20
26099;DHT22;13860;52.370;6.764;2022-07-04T11:27:16;23.30;60.20
26099;DHT22;13860;52.370;6.764;2022-07-04T11:30:23;23.30;60.20
26099;DHT22;13860;52.370;6.764;2022-07-04T11:33:30;23.40;60.10
26099;DHT22;13860;52.370;6.764;2022-07-04T11:36:37;23.50;60.00
26099;DHT22;13860;52.370;6.764;2022-07-04T11:39:42;23.50;59.70
26099;DHT22;13860;52.370;6.764;2022-07-04T11:43:03;23.60;59.60
26099;DHT22;13860;52.370;6.764;2022-07-04T11:46:23;23.70;59.30
26099;DHT22;13860;52.370;6.764;2022-07-04T11:49:28;23.80;59.30
26099;DHT22;13860;52.370;6.764;2022-07-04T11:52:40;24.00;59.30
26099;DHT22;13860;52.370;6.764;2022-07-04T11:56:05;24.20;59.00
26099;DHT22;13860;52.370;6.764;2022-07-04T11:59:13;24.30;58.90
26099;DHT22;13860;52.370;6.764;2022-07-04T12:02:21;24.60;58.60
26099;DHT22;13860;52.370;6.764;2022-07-04T12:05:27;24.80;58.30
26099;DHT22;13860;52.370;6.764;2022-07-04T12:08:33;25.00;58.10
26099;DHT22;13860;52.370;6.764;2022-07-04T12:11:51;25.20;57.90
26099;DHT22;13860;52.370;6.764;2022-07-04T12:15:01;25.40;57.20
26099;DHT22;13860;52.370;6.764;2022-07-04T12:18:17;25.50;57.20
26099;DHT22;13860;52.370;6.764;2022-07-04T12:21:22;25.70;56.60
26099;DHT22;13860;52.370;6.764;2022-07-04T12:24:27;25.70;56.60
26099;DHT22;13860;52.370;6.764;2022-07-04T12:27:33;25.80;56.40
26099;DHT22;13860;52.370;6.764;2022-07-04T12:30:47;25.90;56.30
26099;DHT22;13860;52.370;6.764;2022-07-04T12:33:57;25.90;56.20
26099;DHT22;13860;52.370;6.764;2022-07-04T12:37:08;25.80;56.10
26099;DHT22;13860;52.370;6.764;2022-07-04T12:40:14;25.80;55.90
26099;DHT22;13860;52.370;6.764;2022-07-04T12:43:20;25.80;55.90
26099;DHT22;13860;52.370;6.764;2022-07-04T12:46:27;25.80;55.90
26099;DHT22;13860;52.370;6.764;2022-07-04T12:49:36;25.80;55.80
26099;DHT22;13860;52.370;6.764;2022-07-04T12:52:42;25.90;55.60
26099;DHT22;13860;52.370;6.764;2022-07-04T12:55:48;26.00;55.60
26099;DHT22;13860;52.370;6.764;2022-07-04T12:58:53;26.00;55.40
26099;DHT22;13860;52.370;6.764;2022-07-04T13:01:58;26.10;55.30
26099;DHT22;13860;52.370;6.764;2022-07-04T13:05:07;26.20;55.10
26099;DHT22;13860;52.370;6.764;2022-07-04T13:08:13;26.20;54.80
26099;DHT22;13860;52.370;6.764;2022-07-04T13:11:18;26.30;54.80
26099;DHT22;13860;52.370;6.764;2022-07-04T13:14:36;26.40;54.80
26099;DHT22;13860;52.370;6.764;2022-07-04T13:17:41;26.50;54.60
26099;DHT22;13860;52.370;6.764;2022-07-04T13:20:49;26.50;54.30
26099;DHT22;13860;52.370;6.764;2022-07-04T13:23:54;26.60;54.00
26099;DHT22;13860;52.370;6.764;2022-07-04T13:26:59;26.80;54.10
26099;DHT22;13860;52.370;6.764;2022-07-04T13:30:05;26.80;53.80
26099;DHT22;13860;52.370;6.764;2022-07-04T13:33:10;26.90;53.50
26099;DHT22;13860;52.370;6.764;2022-07-04T13:36:18;27.00;53.40
26099;DHT22;13860;52.370;6.764;2022-07-04T13:39:26;27.00;53.00
26099;DHT22;13860;52.370;6.764;2022-07-04T13:42:51;27.10;53.00
26099;DHT22;13860;52.370;6.764;2022-07-04T13:46:02;27.10;53.10
26099;DHT22;13860;52.370;6.764;2022-07-04T13:49:07;27.20;52.90
26099;DHT22;13860;52.370;6.764;2022-07-04T13:52:17;27.20;52.80
26099;DHT22;13860;52.370;6.764;2022-07-04T13:55:23;27.20;52.60
26099;DHT22;13860;52.370;6.764;2022-07-04T13:58:28;27.30;52.80
26099;DHT22;13860;52.370;6.764;2022-07-04T14:01:33;27.30;52.50
26099;DHT22;13860;52.370;6.764;2022-07-04T14:04:38;27.30;52.40
26099;DHT22;13860;52.370;6.764;2022-07-04T14:07:46;27.30;52.10
26099;DHT22;13860;52.370;6.764;2022-07-04T14:10:51;27.40;51.90
26099;DHT22;13860;52.370;6.764;2022-07-04T14:13:56;27.40;51.90
26099;DHT22;13860;52.370;6.764;2022-07-04T14:17:07;27.40;51.80
26099;DHT22;13860;52.370;6.764;2022-07-04T14:20:32;27.40;51.70
26099;DHT22;13860;52.370;6.764;2022-07-04T14:23:40;27.40;51.60
26099;DHT22;13860;52.370;6.764;2022-07-04T14:26:47;27.40;51.50
26099;DHT22;13860;52.370;6.764;2022-07-04T14:29:55;27.40;51.60
26099;DHT22;13860;52.370;6.764;2022-07-04T14:33:00;27.30;51.40
26099;DHT22;13860;52.370;6.764;2022-07-04T14:36:06;27.30;51.40
26099;DHT22;13860;52.370;6.764;2022-07-04T14:39:15;27.30;51.30
26099;DHT22;13860;52.370;6.764;2022-07-04T14:42:21;27.30;51.10
26099;DHT22;13860;52.370;6.764;2022-07-04T14:45:26;27.30;51.20
26099;DHT22;13860;52.370;6.764;2022-07-04T14:48:32;27.20;51.00
26099;DHT22;13860;52.370;6.764;2022-07-04T14:51:38;27.20;51.00
26099;DHT22;13860;52.370;6.764;2022-07-04T14:54:46;27.20;50.90
26099;DHT22;13860;52.370;6.764;2022-07-04T14:57:51;27.20;50.70
26099;DHT22;13860;52.370;6.764;2022-07-04T15:00:56;27.10;50.80
26099;DHT22;13860;52.370;6.764;2022-07-04T15:04:01;27.10;50.90
26099;DHT22;13860;52.370;6.764;2022-07-04T15:07:06;27.00;50.80
26099;DHT22;13860;52.370;6.764;2022-07-04T15:10:14;26.90;50.70
26099;DHT22;13860;52.370;6.764;2022-07-04T15:13:19;26.90;50.60
26099;DHT22;13860;52.370;6.764;2022-07-04T15:16:24;26.90;50.70
26099;DHT22;13860;52.370;6.764;2022-07-04T15:19:30;26.80;50.60
26099;DHT22;13860;52.370;6.764;2022-07-04T15:22:55;26.80;50.60
26099;DHT22;13860;52.370;6.764;2022-07-04T15:26:15;26.80;50.50
26099;DHT22;13860;52.370;6.764;2022-07-04T15:29:22;26.80;50.60
26099;DHT22;13860;52.370;6.764;2022-07-04T15:32:28;26.80;50.50
26099;DHT22;13860;52.370;6.764;2022-07-04T15:35:33;26.70;50.50
26099;DHT22;13860;52.370;6.764;2022-07-04T15:38:45;26.70;50.50
26099;DHT22;13860;52.370;6.764;2022-07-04T15:41:53;26.70;50.40
26099;DHT22;13860;52.370;6.764;2022-07-04T15:44:58;26.60;50.20
26099;DHT22;13860;52.370;6.764;2022-07-04T15:48:06;26.50;50.20
26099;DHT22;13860;52.370;6.764;2022-07-04T15:51:11;26.50;50.20
26099;DHT22;13860;52.370;6.764;2022-07-04T15:54:38;26.40;50.20
26099;DHT22;13860;52.370;6.764;2022-07-04T15:57:46;26.30;50.10
26099;DHT22;13860;52.370;6.764;2022-07-04T16:00:51;26.30;50.10
26099;DHT22;13860;52.370;6.764;2022-07-04T16:03:59;26.20;50.10
26099;DHT22;13860;52.370;6.764;2022-07-04T16:07:05;26.10;50.20
26099;DHT22;13860;52.370;6.764;2022-07-04T16:10:13;26.10;50.20
26099;DHT22;13860;52.370;6.764;2022-07-04T16:13:22;26.00;50.20
26099;DHT22;13860;52.370;6.764;2022-07-04T16:16:27;26.00;50.20
26099;DHT22;13860;52.370;6.764;2022-07-04T16:19:33;26.00;50.30
26099;DHT22;13860;52.370;6.764;2022-07-04T16:22:38;25.90;50.20
26099;DHT22;13860;52.370;6.764;2022-07-04T16:25:43;25.90;50.20
26099;DHT22;13860;52.370;6.764;2022-07-04T16:28:50;25.80;50.10
26099;DHT22;13860;52.370;6.764;2022-07-04T16:31:55;25.80;50.00
26099;DHT22;13860;52.370;6.764;2022-07-04T16:35:01;25.70;50.00
26099;DHT22;13860;52.370;6.764;2022-07-04T16:38:06;25.70;50.10
26099;DHT22;13860;52.370;6.764;2022-07-04T16:41:11;25.70;50.10
26099;DHT22;13860;52.370;6.764;2022-07-04T16:44:18;25.70;50.10
26099;DHT22;13860;52.370;6.764;2022-07-04T16:47:23;25.60;50.30
26099;DHT22;13860;52.370;6.764;2022-07-04T16:50:29;25.60;50.00
26099;DHT22;13860;52.370;6.764;2022-07-04T16:53:34;25.50;49.90
26099;DHT22;13860;52.370;6.764;2022-07-04T16:56:39;25.50;50.00
26099;DHT22;13860;52.370;6.764;2022-07-04T16:59:46;25.50;50.60
26099;DHT22;13860;52.370;6.764;2022-07-04T17:02:51;25.40;49.90
26099;DHT22;13860;52.370;6.764;2022-07-04T17:05:56;25.40;49.90
26099;DHT22;13860;52.370;6.764;2022-07-04T17:09:01;25.30;49.90
26099;DHT22;13860;52.370;6.764;2022-07-04T17:12:07;25.30;49.90
26099;DHT22;13860;52.370;6.764;2022-07-04T17:15:14;25.20;49.90
26099;DHT22;13860;52.370;6.764;2022-07-04T17:18:19;25.10;49.90
26099;DHT22;13860;52.370;6.764;2022-07-04T17:21:24;25.00;50.00
26099;DHT22;13860;52.370;6.764;2022-07-04T17:24:29;25.00;50.10
26099;DHT22;13860;52.370;6.764;2022-07-04T17:27:34;24.90;50.10
26099;DHT22;13860;52.370;6.764;2022-07-04T17:30:42;24.90;50.20
26099;DHT22;13860;52.370;6.764;2022-07-04T17:33:47;24.80;50.30
26099;DHT22;13860;52.370;6.764;2022-07-04T17:36:52;24.70;50.40
26099;DHT22;13860;52.370;6.764;2022-07-04T17:39:57;24.50;50.40
26099;DHT22;13860;52.370;6.764;2022-07-04T17:43:03;24.50;50.50
26099;DHT22;13860;52.370;6.764;2022-07-04T17:46:18;24.30;50.50
26099;DHT22;13860;52.370;6.764;2022-07-04T17:49:24;24.20;50.60
26099;DHT22;13860;52.370;6.764;2022-07-04T17:52:32;24.20;50.70
26099;DHT22;13860;52.370;6.764;2022-07-04T17:55:37;24.00;50.70
26099;DHT22;13860;52.370;6.764;2022-07-04T17:58:45;23.90;50.80
26099;DHT22;13860;52.370;6.764;2022-07-04T18:01:55;23.80;50.90
26099;DHT22;13860;52.370;6.764;2022-07-04T18:05:02;23.70;51.00
26099;DHT22;13860;52.370;6.764;2022-07-04T18:08:07;23.60;51.00
26099;DHT22;13860;52.370;6.764;2022-07-04T18:11:13;23.60;51.10
26099;DHT22;13860;52.370;6.764;2022-07-04T18:14:18;23.50;51.20
26099;DHT22;13860;52.370;6.764;2022-07-04T18:17:26;23.40;51.30
26099;DHT22;13860;52.370;6.764;2022-07-04T18:20:31;23.30;51.30
26099;DHT22;13860;52.370;6.764;2022-07-04T18:23:36;23.20;51.50
26099;DHT22;13860;52.370;6.764;2022-07-04T18:26:41;23.10;51.50
26099;DHT22;13860;52.370;6.764;2022-07-04T18:29:46;23.10;51.70
26099;DHT22;13860;52.370;6.764;2022-07-04T18:32:54;22.90;51.50
26099;DHT22;13860;52.370;6.764;2022-07-04T18:35:59;22.90;51.70
26099;DHT22;13860;52.370;6.764;2022-07-04T18:39:04;22.80;51.80
26099;DHT22;13860;52.370;6.764;2022-07-04T18:42:12;22.70;51.80
26099;DHT22;13860;52.370;6.764;2022-07-04T18:45:29;22.60;51.90
26099;DHT22;13860;52.370;6.764;2022-07-04T18:48:38;22.60;52.00
26099;DHT22;13860;52.370;6.764;2022-07-04T18:51:44;22.50;52.20
26099;DHT22;13860;52.370;6.764;2022-07-04T18:54:51;22.50;52.30
26099;DHT22;13860;52.370;6.764;2022-07-04T18:57:56;22.40;52.30
26099;DHT22;13860;52.370;6.764;2022-07-04T19:01:09;22.40;52.40
26099;DHT22;13860;52.370;6.764;2022-07-04T19:04:18;22.30;53.10
26099;DHT22;13860;52.370;6.764;2022-07-04T19:07:23;22.20;52.50
26099;DHT22;13860;52.370;6.764;2022-07-04T19:10:29;22.20;52.60
26099;DHT22;13860;52.370;6.764;2022-07-04T19:13:34;22.10;52.60
26099;DHT22;13860;52.370;6.764;2022-07-04T19:16:40;22.10;52.70
26099;DHT22;13860;52.370;6.764;2022-07-04T19:19:47;22.00;52.80
26099;DHT22;13860;52.370;6.764;2022-07-04T19:22:53;22.00;52.80
26099;DHT22;13860;52.370;6.764;2022-07-04T19:25:58;21.90;52.90
26099;DHT22;13860;52.370;6.764;2022-07-04T19:29:03;21.90;53.00
26099;DHT22;13860;52.370;6.764;2022-07-04T19:32:09;21.80;53.00
26099;DHT22;13860;52.370;6.764;2022-07-04T19:35:17;21.80;53.20
26099;DHT22;13860;52.370;6.764;2022-07-04T19:38:22;21.70;53.20
26099;DHT22;13860;52.370;6.764;2022-07-04T19:41:27;21.60;53.20
26099;DHT22;13860;52.370;6.764;2022-07-04T19:44:32;21.60;53.30
26099;DHT22;13860;52.370;6.764;2022-07-04T19:47:37;21.50;53.30